createdAt,value
2022-09-09T00:02:24.679Z,366.40
2022-09-09T00:05:00.917Z,365.48
2022-09-09T00:07:44.298Z,378.23
2022-09-09T00:10:16.901Z,370.15
2022-09-09T00:12:58.421Z,374.65
2022-09-09T00:15:34.523Z,367.90
2022-09-09T00:18:16.427Z,371.05
2022-09-09T00:20:56.759Z,372.20
2022-09-09T00:23:31.053Z,378.55
2022-09-09T00:26:03.393Z,388.17
2022-09-09T00:28:33.201Z,390.75
2022-09-09T00:31:13.844Z,390.70
2022-09-09T00:33:42.104Z,390.00
2022-09-09T00:36:16.654Z,395.38
2022-09-09T00:38:50.171Z,391.25
2022-09-09T00:41:27.884Z,385.85
2022-09-09T00:44:12.066Z,379.13
2022-09-09T00:47:08.399Z,375.95
2022-09-09T00:50:10.140Z,386.40
2022-09-09T00:52:58.569Z,395.42
2022-09-09T00:55:51.348Z,393.38
2022-09-09T00:58:17.948Z,394.20
2022-09-09T01:00:53.951Z,393.15
2022-09-09T01:03:33.986Z,395.97
2022-09-09T01:06:14.189Z,388.15
2022-09-09T01:09:12.748Z,392.23
2022-09-09T01:12:00.574Z,400.42
2022-09-09T01:14:37.011Z,392.13
2022-09-09T01:17:25.613Z,390.40
2022-09-09T01:20:07.890Z,379.55
2022-09-09T01:23:02.271Z,387.20
2022-09-09T01:26:01.952Z,384.00
2022-09-09T01:28:29.961Z,398.17
2022-09-09T01:31:05.142Z,403.15
2022-09-09T01:33:38.713Z,388.77
2022-09-09T01:36:19.006Z,382.15
2022-09-09T01:38:49.584Z,389.63
2022-09-09T01:41:18.175Z,384.15
2022-09-09T01:43:52.936Z,391.88
2022-09-09T01:46:22.928Z,389.48
2022-09-09T01:48:52.144Z,399.27
2022-09-09T01:51:19.073Z,397.55
2022-09-09T01:53:47.231Z,397.55
2022-09-09T01:56:35.887Z,403.58
2022-09-09T01:59:24.227Z,393.73
2022-09-09T02:02:20.484Z,396.73
2022-09-09T02:05:36.646Z,389.80
2022-09-09T02:08:08.895Z,392.50
2022-09-09T02:10:57.399Z,403.60
2022-09-09T02:13:37.539Z,382.88
2022-09-09T02:16:14.175Z,388.35
2022-09-09T02:18:55.960Z,398.60
2022-09-09T02:21:32.570Z,386.05
2022-09-09T02:24:05.459Z,400.23
2022-09-09T02:26:42.164Z,398.45
2022-09-09T02:29:15.865Z,399.05
2022-09-09T02:31:45.201Z,402.73
2022-09-09T02:34:21.925Z,405.95
2022-09-09T02:36:50.620Z,398.83
2022-09-09T02:39:17.362Z,398.20
2022-09-09T02:41:44.051Z,399.05
2022-09-09T02:44:17.882Z,391.88
2022-09-09T02:47:05.794Z,387.88
2022-09-09T02:49:35.611Z,383.53
2022-09-09T02:52:09.783Z,397.45
2022-09-09T02:54:40.900Z,390.15
2022-09-09T02:57:22.073Z,401.63
2022-09-09T02:59:50.991Z,384.60
2022-09-09T03:02:17.807Z,380.88
2022-09-09T03:04:51.860Z,397.63
2022-09-09T03:07:22.394Z,393.67
2022-09-09T03:09:51.045Z,392.15
2022-09-09T03:12:17.681Z,393.20
2022-09-09T03:14:46.357Z,383.35
2022-09-09T03:17:13.556Z,370.83
2022-09-09T03:19:49.145Z,371.88
2022-09-09T03:22:15.821Z,380.92
2022-09-09T03:24:44.174Z,379.80
2022-09-09T03:27:10.798Z,397.13
2022-09-09T03:29:38.863Z,386.85
2022-09-09T03:32:11.044Z,389.27
2022-09-09T03:34:41.162Z,381.43
2022-09-09T03:37:10.920Z,398.23
2022-09-09T03:39:37.816Z,394.10
2022-09-09T03:42:04.971Z,383.80
2022-09-09T03:44:32.541Z,391.38
2022-09-09T03:47:01.568Z,384.58
2022-09-09T03:49:29.709Z,377.88
2022-09-09T03:51:58.115Z,382.02
2022-09-09T03:54:25.958Z,367.75
2022-09-09T03:56:52.718Z,358.40
2022-09-09T03:59:21.570Z,389.90
2022-09-09T04:01:48.435Z,372.83
2022-09-09T04:04:15.029Z,368.33
2022-09-09T04:06:41.789Z,373.90
2022-09-09T04:09:08.414Z,375.75
2022-09-09T04:11:35.281Z,386.95
2022-09-09T04:14:02.165Z,386.67
2022-09-09T04:16:30.431Z,379.67
2022-09-09T04:18:57.107Z,378.27
2022-09-09T04:21:24.184Z,381.95
2022-09-09T04:23:50.942Z,380.45
2022-09-09T04:26:19.010Z,400.33
2022-09-09T04:28:45.919Z,396.08
2022-09-09T04:31:21.182Z,381.92
2022-09-09T04:33:49.358Z,383.80
2022-09-09T04:36:19.185Z,378.17
2022-09-09T04:38:47.008Z,376.05
2022-09-09T04:41:14.707Z,368.33
2022-09-09T04:43:44.582Z,383.77
2022-09-09T04:46:12.517Z,368.40
2022-09-09T04:48:39.118Z,370.02
2022-09-09T04:51:11.917Z,389.57
2022-09-09T04:53:39.069Z,384.90
2022-09-09T04:56:14.493Z,392.45
2022-09-09T04:58:45.397Z,385.67
2022-09-09T05:01:19.201Z,377.73
2022-09-09T05:03:47.353Z,377.38
2022-09-09T05:06:22.306Z,369.02
2022-09-09T05:08:51.750Z,369.15
2022-09-09T05:11:28.534Z,381.73
2022-09-09T05:14:02.367Z,364.63
2022-09-09T05:16:31.781Z,354.35
2022-09-09T05:18:58.532Z,391.83
2022-09-09T05:21:27.624Z,382.08
2022-09-09T05:23:55.081Z,399.25
2022-09-09T05:26:23.211Z,394.20
2022-09-09T05:28:52.636Z,378.13
2022-09-09T05:31:19.895Z,376.30
2022-09-09T05:33:50.361Z,371.60
2022-09-09T05:36:19.844Z,378.75
2022-09-09T05:38:48.561Z,336.52
2022-09-09T05:41:16.817Z,362.97
2022-09-09T05:43:45.452Z,371.50
2022-09-09T05:46:15.203Z,375.80
2022-09-09T05:48:50.993Z,359.08
2022-09-09T05:51:22.479Z,362.17
2022-09-09T05:53:50.004Z,351.67
2022-09-09T05:56:26.152Z,348.77
2022-09-09T05:58:55.108Z,338.23
2022-09-09T06:01:25.333Z,349.85
2022-09-09T06:03:53.225Z,334.00
2022-09-09T06:06:32.460Z,356.80
2022-09-09T06:09:00.207Z,351.80
2022-09-09T06:11:32.492Z,360.93
2022-09-09T06:14:00.911Z,378.27
2022-09-09T06:16:30.646Z,364.27
2022-09-09T06:18:58.927Z,352.38
2022-09-09T06:21:28.897Z,356.20
2022-09-09T06:24:00.190Z,339.63
2022-09-09T06:26:31.470Z,348.35
2022-09-09T06:28:59.254Z,342.25
2022-09-09T06:31:30.124Z,350.67
2022-09-09T06:34:02.225Z,353.98
2022-09-09T06:36:33.029Z,346.63
2022-09-09T06:39:01.151Z,346.85
2022-09-09T06:41:30.141Z,341.33
2022-09-09T06:43:57.630Z,334.88
2022-09-09T06:46:34.060Z,352.27
2022-09-09T06:49:01.913Z,349.67
2022-09-09T06:51:33.455Z,360.33
2022-09-09T06:54:03.093Z,366.58
2022-09-09T06:56:37.388Z,360.63
2022-09-09T06:59:09.586Z,350.10
2022-09-09T07:01:40.793Z,357.55
2022-09-09T07:04:12.062Z,362.60
2022-09-09T07:06:47.059Z,350.40
2022-09-09T07:09:18.051Z,343.23
2022-09-09T07:11:50.317Z,339.30
2022-09-09T07:14:18.681Z,343.27
2022-09-09T07:16:48.623Z,343.23
2022-09-09T07:19:17.607Z,341.00
2022-09-09T07:21:46.090Z,341.67
2022-09-09T07:24:15.287Z,350.77
2022-09-09T07:26:43.217Z,353.13
2022-09-09T07:29:09.874Z,340.77
2022-09-09T07:31:38.845Z,358.27
2022-09-09T07:34:09.645Z,347.25
2022-09-09T07:36:41.463Z,343.00
2022-09-09T07:39:14.504Z,341.17
2022-09-09T07:41:50.086Z,347.20
2022-09-09T07:44:25.800Z,345.60
2022-09-09T07:47:08.995Z,354.05
2022-09-09T07:49:40.050Z,350.50
2022-09-09T07:52:08.536Z,348.53
2022-09-09T07:54:36.452Z,352.37
2022-09-09T07:57:05.483Z,357.10
2022-09-09T07:59:35.066Z,351.17
2022-09-09T08:02:02.964Z,351.63
2022-09-09T08:04:32.431Z,339.55
2022-09-09T08:07:02.019Z,362.17
2022-09-09T08:09:30.537Z,339.10
2022-09-09T08:12:34.911Z,360.13
2022-09-09T08:15:03.764Z,365.80
2022-09-09T08:17:33.870Z,363.42
2022-09-09T08:20:06.070Z,375.90
2022-09-09T08:22:33.597Z,354.25
2022-09-09T08:25:00.298Z,354.77
2022-09-09T08:27:27.035Z,356.38
2022-09-09T08:29:54.875Z,352.33
2022-09-09T08:32:21.639Z,354.00
2022-09-09T08:34:54.516Z,352.77
2022-09-09T08:37:23.154Z,356.70
2022-09-09T08:39:54.022Z,349.90
2022-09-09T08:42:36.555Z,364.95
2022-09-09T08:45:18.382Z,358.92
2022-09-09T08:47:48.163Z,343.13
2022-09-09T08:50:28.213Z,349.52
2022-09-09T08:53:09.303Z,344.88
2022-09-09T08:55:42.889Z,336.48
2022-09-09T08:58:17.084Z,340.88
2022-09-09T09:01:17.381Z,338.92
2022-09-09T09:04:22.378Z,333.13
2022-09-09T09:07:10.458Z,329.80
2022-09-09T09:09:42.073Z,331.05
2022-09-09T09:12:18.831Z,342.40
2022-09-09T09:14:48.460Z,332.90
2022-09-09T09:17:26.393Z,329.20
2022-09-09T09:19:54.884Z,295.30
2022-09-09T09:22:48.840Z,288.67
2022-09-09T09:25:18.956Z,282.35
2022-09-09T09:28:06.116Z,250.68
2022-09-09T09:30:40.849Z,249.70
2022-09-09T09:33:19.119Z,261.75
2022-09-09T09:35:46.784Z,270.65
2022-09-09T09:41:10.747Z,269.65
2022-09-09T09:43:40.977Z,275.25
2022-09-09T09:46:26.763Z,277.40
2022-09-09T09:49:03.086Z,278.17
2022-09-09T09:51:33.263Z,264.77
2022-09-09T09:54:14.933Z,275.50
2022-09-09T09:56:44.518Z,279.27
2022-09-09T09:59:39.311Z,285.05
2022-09-09T10:02:17.887Z,276.88
2022-09-09T10:04:47.568Z,277.40
2022-09-09T10:07:20.612Z,265.00
2022-09-09T10:09:54.361Z,260.33
2022-09-09T10:12:35.618Z,256.58
2022-09-09T10:15:30.139Z,237.25
2022-09-09T10:18:32.521Z,254.40
2022-09-09T10:21:01.859Z,262.17
2022-09-09T10:23:28.345Z,191.75
2022-09-09T10:26:17.253Z,197.05
2022-09-09T10:29:06.637Z,194.07
2022-09-09T10:31:42.885Z,195.82
2022-09-09T10:34:32.480Z,192.50
2022-09-09T10:37:03.747Z,176.13
2022-09-09T10:39:43.193Z,170.25
2022-09-09T10:42:20.311Z,159.27
2022-09-09T10:45:38.350Z,157.27
2022-09-09T10:48:21.790Z,169.30
2022-09-09T10:51:12.029Z,152.63
2022-09-09T10:53:52.929Z,129.63
2022-09-09T10:56:22.593Z,138.70
2022-09-09T10:59:02.136Z,119.55
2022-09-09T11:01:41.495Z,125.43
2022-09-09T11:04:23.136Z,138.00
2022-09-09T11:06:53.620Z,119.85
2022-09-09T11:09:24.313Z,126.70
2022-09-09T11:11:55.414Z,143.00
2022-09-09T11:14:28.685Z,136.25
2022-09-09T11:17:03.093Z,133.38
2022-09-09T11:19:36.809Z,155.85
2022-09-09T11:22:16.871Z,159.13
2022-09-09T11:25:11.307Z,190.07
2022-09-09T11:27:55.243Z,183.57
2022-09-09T11:30:53.841Z,163.18
2022-09-09T11:33:38.604Z,153.88
2022-09-09T11:36:35.686Z,182.77
2022-09-09T11:39:08.051Z,203.43
2022-09-09T11:41:38.147Z,164.23
2022-09-09T11:44:21.510Z,141.23
2022-09-09T11:46:53.079Z,154.18
2022-09-09T11:49:29.736Z,158.30
2022-09-09T11:51:56.314Z,186.15
2022-09-09T11:54:32.347Z,173.20
2022-09-09T11:56:59.505Z,202.07
2022-09-09T11:59:33.832Z,214.68
2022-09-09T12:02:00.410Z,249.13
2022-09-09T12:04:26.997Z,261.20
2022-09-09T12:06:55.613Z,253.38
2022-09-09T12:09:33.479Z,286.20
2022-09-09T12:12:24.997Z,265.08
2022-09-09T12:15:18.812Z,278.92
2022-09-09T12:17:54.457Z,260.88
2022-09-09T12:20:36.996Z,256.33
2022-09-09T12:23:43.589Z,259.48
2022-09-09T12:26:41.027Z,246.95
2022-09-09T12:29:20.072Z,226.63
2022-09-09T12:32:03.092Z,201.10
2022-09-09T12:34:45.790Z,199.07
2022-09-09T12:37:46.206Z,199.60
2022-09-09T12:40:27.868Z,179.38
2022-09-09T12:42:56.173Z,164.85
2022-09-09T12:45:26.300Z,160.03
2022-09-09T12:48:01.502Z,144.48
2022-09-09T12:50:44.581Z,160.60
2022-09-09T12:53:26.520Z,138.48
2022-09-09T12:55:57.884Z,103.88
2022-09-09T12:58:26.103Z,99.55
2022-09-09T13:00:57.111Z,84.45
2022-09-09T13:03:24.350Z,81.85
2022-09-09T13:05:51.539Z,83.38
2022-09-09T13:08:21.520Z,78.77
2022-09-09T13:11:00.141Z,77.22
2022-09-09T13:13:36.070Z,86.13
2022-09-09T13:16:06.581Z,66.70
2022-09-09T13:18:36.979Z,37.15
2022-09-09T13:21:04.123Z,26.00
2022-09-09T13:23:33.167Z,16.63
2022-09-09T13:26:02.637Z,9.65
2022-09-09T13:28:33.839Z,7.32
2022-09-09T13:31:04.316Z,6.22
2022-09-09T13:33:38.143Z,5.68
2022-09-09T13:36:10.113Z,5.32
2022-09-09T13:38:59.476Z,5.15
2022-09-09T13:41:45.262Z,6.05
2022-09-09T13:44:28.333Z,4.30
2022-09-09T13:47:24.280Z,5.05
2022-09-09T13:49:50.956Z,5.68
2022-09-09T13:52:19.866Z,4.88
2022-09-09T13:54:52.051Z,5.10
2022-09-09T13:57:26.741Z,5.15
2022-09-09T14:00:06.833Z,4.32
2022-09-09T14:02:34.857Z,4.10
2022-09-09T14:05:01.699Z,5.28
2022-09-09T14:07:30.698Z,4.20
2022-09-09T14:09:57.472Z,4.10
2022-09-09T14:12:24.970Z,5.07
2022-09-09T14:14:51.947Z,4.68
2022-09-09T14:17:18.509Z,4.20
2022-09-09T14:19:48.354Z,5.68
2022-09-09T14:22:15.513Z,5.03
2022-09-09T14:24:42.177Z,5.22
2022-09-09T14:27:08.845Z,4.38
2022-09-09T14:29:35.389Z,4.97
2022-09-09T14:32:04.361Z,5.82
2022-09-09T14:34:33.342Z,5.38
2022-09-09T14:37:00.139Z,5.32
2022-09-09T14:39:27.229Z,4.20
2022-09-09T14:41:53.876Z,4.13
2022-09-09T14:44:20.612Z,5.80
2022-09-09T14:46:47.262Z,6.03
2022-09-09T14:49:13.883Z,5.60
2022-09-09T14:51:40.565Z,9.48
2022-09-09T14:54:07.399Z,5.43
2022-09-09T14:56:37.956Z,5.32
2022-09-09T14:59:04.975Z,5.90
2022-09-09T15:01:33.128Z,5.60
2022-09-09T15:04:01.805Z,5.70
2022-09-09T15:06:30.974Z,5.25
2022-09-09T15:09:00.386Z,5.05
2022-09-09T15:11:32.969Z,5.90
2022-09-09T15:13:59.703Z,5.05
2022-09-09T15:16:28.976Z,6.47
2022-09-09T15:18:58.132Z,4.05
2022-09-09T15:21:27.481Z,5.68
2022-09-09T15:23:54.606Z,6.30
2022-09-09T15:26:21.856Z,5.00
2022-09-09T15:28:50.722Z,6.10
2022-09-09T15:31:23.178Z,8.50
2022-09-09T15:34:04.342Z,6.55
2022-09-09T15:36:37.123Z,6.55
2022-09-09T15:39:06.266Z,8.32
2022-09-09T15:41:33.421Z,12.05
2022-09-09T15:44:03.893Z,9.30
2022-09-09T15:46:33.275Z,9.10
2022-09-09T15:49:11.781Z,9.17
2022-09-09T15:51:44.554Z,9.65
2022-09-09T15:54:14.392Z,10.57
2022-09-09T15:56:41.812Z,10.35
2022-09-09T15:59:08.453Z,8.18
2022-09-09T16:01:36.473Z,11.05
2022-09-09T16:04:03.621Z,9.00
2022-09-09T16:06:30.725Z,13.50
2022-09-09T16:08:59.133Z,15.75
2022-09-09T16:11:38.216Z,8.52
2022-09-09T16:14:06.317Z,9.75
2022-09-09T16:16:33.399Z,11.75
2022-09-09T16:19:06.751Z,16.02
2022-09-09T16:21:36.221Z,19.60
2022-09-09T16:24:03.929Z,14.85
2022-09-09T16:26:33.215Z,18.50
2022-09-09T16:29:01.071Z,29.10
2022-09-09T16:31:29.357Z,33.33
2022-09-09T16:33:56.763Z,34.05
2022-09-09T16:36:28.463Z,29.30
2022-09-09T16:39:00.605Z,24.17
2022-09-09T16:41:29.768Z,25.63
2022-09-09T16:44:03.320Z,29.10
2022-09-09T16:46:31.685Z,27.92
2022-09-09T16:48:59.485Z,29.23
2022-09-09T16:51:35.831Z,24.30
2022-09-09T16:54:05.008Z,25.95
2022-09-09T16:56:34.952Z,21.13
2022-09-09T16:59:03.578Z,25.20
2022-09-09T17:01:33.863Z,24.70
2022-09-09T17:04:03.469Z,30.42
2022-09-09T17:06:31.713Z,32.60
2022-09-09T17:09:00.598Z,36.58
2022-09-09T17:11:27.121Z,38.92
2022-09-09T17:13:55.559Z,42.67
2022-09-09T17:16:24.583Z,40.80
2022-09-09T17:18:52.744Z,43.83
2022-09-09T17:21:21.959Z,50.43
2022-09-09T17:23:51.365Z,47.22
2022-09-09T17:26:20.577Z,42.47
2022-09-09T17:28:47.267Z,57.67
2022-09-09T17:31:16.736Z,63.08
2022-09-09T17:33:46.991Z,66.60
2022-09-09T17:36:16.722Z,68.68
2022-09-09T17:38:43.654Z,82.43
2022-09-09T17:41:17.289Z,101.65
2022-09-09T17:43:44.382Z,103.40
2022-09-09T17:46:22.639Z,121.65
2022-09-09T17:48:51.409Z,142.85
2022-09-09T17:51:28.389Z,146.98
2022-09-09T17:53:56.977Z,157.52
2022-09-09T17:56:29.188Z,161.73
2022-09-09T17:58:55.780Z,175.93
2022-09-09T18:01:27.808Z,175.70
2022-09-09T18:03:57.381Z,176.82
2022-09-09T18:06:28.049Z,190.43
2022-09-09T18:09:01.368Z,184.35
2022-09-09T18:11:38.623Z,184.05
2022-09-09T18:14:06.007Z,205.27
2022-09-09T18:16:35.992Z,218.70
2022-09-09T18:19:05.627Z,213.23
2022-09-09T18:21:34.145Z,223.65
2022-09-09T18:24:07.589Z,227.23
2022-09-09T18:26:35.459Z,240.23
2022-09-09T18:29:06.678Z,251.87
2022-09-09T18:31:34.319Z,252.60
2022-09-09T18:34:03.831Z,254.23
2022-09-09T18:36:35.110Z,250.88
2022-09-09T18:39:03.691Z,257.20
2022-09-09T18:41:32.716Z,263.95
2022-09-09T18:44:02.440Z,269.63
2022-09-09T18:46:32.767Z,276.10
2022-09-09T18:49:02.139Z,285.90
2022-09-09T18:51:29.909Z,278.55
2022-09-09T18:54:02.937Z,283.13
2022-09-09T18:56:30.538Z,284.98
2022-09-09T18:58:59.367Z,285.98
2022-09-09T19:01:27.439Z,275.75
2022-09-09T19:03:54.466Z,282.60
2022-09-09T19:06:26.480Z,291.25
2022-09-09T19:08:57.486Z,277.10
2022-09-09T19:11:27.920Z,285.00
2022-09-09T19:14:00.248Z,283.25
2022-09-09T19:16:29.405Z,278.70
2022-09-09T19:18:58.736Z,280.13
2022-09-09T19:21:31.011Z,267.30
2022-09-09T19:24:06.627Z,277.98
2022-09-09T19:26:40.439Z,272.77
2022-09-09T19:29:10.079Z,278.20
2022-09-09T19:31:37.710Z,284.85
2022-09-09T19:34:04.872Z,277.00
2022-09-09T19:36:31.563Z,277.05
2022-09-09T19:38:58.661Z,295.93
2022-09-09T19:41:27.430Z,293.42
2022-09-09T19:44:01.710Z,295.27
2022-09-09T19:46:30.361Z,301.88
2022-09-09T19:48:58.082Z,303.77
2022-09-09T19:51:26.796Z,309.33
2022-09-09T19:53:58.211Z,311.65
2022-09-09T19:56:27.616Z,309.52
2022-09-09T19:58:54.610Z,304.08
2022-09-09T20:01:22.491Z,319.83
2022-09-09T20:03:52.227Z,313.73
2022-09-09T20:06:21.723Z,317.60
2022-09-09T20:08:48.549Z,314.63
2022-09-09T20:11:16.128Z,318.42
2022-09-09T20:13:43.588Z,312.23
2022-09-09T20:16:16.942Z,321.13
2022-09-09T20:18:46.081Z,325.27
2022-09-09T20:21:16.049Z,333.38
2022-09-09T20:23:46.519Z,348.45
2022-09-09T20:26:17.488Z,346.55
2022-09-09T20:28:45.121Z,342.27
2022-09-09T20:31:20.381Z,334.65
2022-09-09T20:33:48.146Z,342.07
2022-09-09T20:36:24.805Z,351.27
2022-09-09T20:38:59.688Z,356.23
2022-09-09T20:41:29.441Z,363.15
2022-09-09T20:44:01.665Z,370.75
2022-09-09T20:46:33.081Z,363.95
2022-09-09T20:49:03.092Z,361.83
2022-09-09T20:51:33.157Z,356.65
2022-09-09T20:54:06.675Z,374.08
2022-09-09T20:56:37.592Z,370.02
2022-09-09T20:59:05.638Z,364.05
2022-09-09T21:01:32.660Z,366.45
2022-09-09T21:04:06.661Z,365.00
2022-09-09T21:06:33.244Z,365.38
2022-09-09T21:08:59.822Z,369.45
2022-09-09T21:11:26.643Z,369.30
2022-09-09T21:13:53.342Z,366.47
2022-09-09T21:16:21.113Z,368.23
2022-09-09T21:18:50.670Z,354.50
2022-09-09T21:21:19.216Z,356.00
2022-09-09T21:23:45.861Z,361.93
2022-09-09T21:26:12.951Z,364.77
2022-09-09T21:28:40.064Z,362.07
2022-09-09T21:31:07.220Z,365.60
2022-09-09T21:33:34.598Z,367.60
2022-09-09T21:36:06.488Z,363.43
2022-09-09T21:38:33.405Z,357.10
2022-09-09T21:41:05.100Z,351.40
2022-09-09T21:43:32.368Z,352.00
2022-09-09T21:45:59.448Z,358.52
2022-09-09T21:48:26.293Z,369.77
2022-09-09T21:50:53.309Z,367.92
2022-09-09T21:53:20.406Z,365.63
2022-09-09T21:55:51.946Z,361.67
2022-09-09T21:58:18.512Z,373.83
2022-09-09T22:00:46.566Z,372.17
2022-09-09T22:03:14.904Z,365.98
2022-09-09T22:05:43.106Z,368.63
2022-09-09T22:08:11.964Z,367.10
2022-09-09T22:10:40.637Z,368.25
2022-09-09T22:13:07.620Z,379.55
2022-09-09T22:15:35.050Z,368.23
2022-09-09T22:18:03.526Z,373.30
2022-09-09T22:20:33.348Z,376.73
2022-09-09T22:23:00.939Z,364.85
2022-09-09T22:25:28.598Z,370.50
2022-09-09T22:27:56.254Z,378.77
2022-09-09T22:30:22.980Z,376.80
2022-09-09T22:32:53.897Z,382.10
2022-09-09T22:35:20.464Z,383.20
2022-09-09T22:37:47.333Z,382.05
2022-09-09T22:40:14.443Z,369.45
2022-09-09T22:42:41.760Z,373.98
2022-09-09T22:45:13.187Z,384.13
2022-09-09T22:47:42.695Z,388.15
2022-09-09T22:50:09.967Z,393.58
2022-09-09T22:52:37.017Z,389.25
2022-09-09T22:55:04.018Z,382.65
2022-09-09T22:57:31.103Z,391.58
2022-09-09T22:59:57.650Z,389.55
2022-09-09T23:02:26.436Z,384.38
2022-09-09T23:04:53.045Z,391.48
2022-09-09T23:07:20.515Z,398.38
2022-09-09T23:09:47.749Z,401.10
2022-09-09T23:12:14.816Z,401.40
2022-09-09T23:14:41.487Z,393.88
2022-09-09T23:17:08.741Z,405.13
2022-09-09T23:19:37.224Z,402.85
2022-09-09T23:22:04.126Z,407.73
2022-09-09T23:24:30.674Z,407.08
2022-09-09T23:26:57.228Z,406.55
2022-09-09T23:29:23.855Z,413.17
2022-09-09T23:31:50.391Z,406.90
2022-09-09T23:34:16.937Z,410.15
2022-09-09T23:36:43.622Z,420.30
2022-09-09T23:39:11.793Z,416.95
2022-09-09T23:41:40.244Z,423.88
2022-09-09T23:44:07.619Z,413.02
2022-09-09T23:46:35.208Z,413.08
2022-09-09T23:49:02.643Z,405.40
2022-09-09T23:51:30.635Z,409.45
2022-09-09T23:54:00.514Z,403.92
2022-09-09T23:56:39.779Z,404.40
2022-09-09T23:59:07.476Z,403.30
